EPWR/WRO METAR and TAF weather

Enter ICAO airport designator
Station Type Date Time Source
EPWR METAR 2020/09/21 07:00 UTC NOAA

EPWR 210700Z 13004KT CAVOK 12/09 Q1020


Station Type Date Time Source
EPWR Decoded METAR 2020/09/21 07:00 UTC NOAA

Wroclaw Ii, Poland (EPWR) 51-06N 016-53E 121M
Sep 21, 2020 - 03:00 AM EDT / 2020.09.21 0700 UTC
Wind: from the SE (130 degrees) at 5 MPH (4 KT):0
Visibility: greater than 7 mile(s):0
Temperature: 53 F (12 C)
Dew Point: 48 F (9 C)
Relative Humidity: 81%
Pressure (altimeter): 30.12 in. Hg (1020 hPa)
ob: EPWR 210700Z 13004KT CAVOK 12/09 Q1020
cycle: 7

Station Type Date Time Source
EPWR TAF 2020/09/21 06:33 UTC NOAA

TAF EPWR 210530Z 2106/2206 13005KT CAVOK

Example: see airport list